Time,TemperatureF,DewpointF,PressureIn,WindDirection,WindDirectionDegrees,WindSpeedMPH,WindSpeedGustMPH,Humidity,HourlyPrecipIn,Conditions,Clouds,dailyrainin,SoftwareType,DateUTC
2013-06-24 00:17:00,86.3,43.0,29.28,North,359,1.0,-999.0,22,-99.99,,,0.00,weatherlink.com 1.10,2013-06-24 07:17:00,
2013-06-24 00:32:00,85.9,43.0,29.28,North,359,0.0,-999.0,22,-99.99,,,0.00,weatherlink.com 1.10,2013-06-24 07:32:00,
2013-06-24 00:47:00,85.3,42.0,29.28,North,359,0.0,-999.0,22,-99.99,,,0.00,weatherlink.com 1.10,2013-06-24 07:47:00,
2013-06-24 01:02:00,84.9,42.0,29.28,North,359,1.0,-999.0,22,-99.99,,,0.00,weatherlink.com 1.10,2013-06-24 08:02:00,
2013-06-24 01:17:00,83.2,45.0,29.28,North,359,0.0,-999.0,26,-99.99,,,0.00,weatherlink.com 1.10,2013-06-24 08:17:00,
2013-06-24 01:47:00,78.6,47.0,29.29,North,357,8.0,-999.0,33,-99.99,,,0.00,weatherlink.com 1.10,2013-06-24 08:47:00,
2013-06-24 02:02:00,77.6,48.0,29.30,North,359,4.0,-999.0,35,-99.99,,,0.00,weatherlink.com 1.10,2013-06-24 09:02:00,
2013-06-24 02:17:00,77.6,47.0,29.29,North,359,0.0,-999.0,34,-99.99,,,0.00,weatherlink.com 1.10,2013-06-24 09:17:00,
2013-06-24 02:32:00,77.4,49.0,29.29,North,359,0.0,-999.0,37,-99.99,,,0.00,weatherlink.com 1.10,2013-06-24 09:32:00,
2013-06-24 02:47:00,76.3,49.0,29.29,North,359,0.0,-999.0,38,-99.99,,,0.00,weatherlink.com 1.10,2013-06-24 09:47:00,
2013-06-24 03:02:00,75.8,48.0,29.30,North,359,0.0,-999.0,37,-99.99,,,0.00,weatherlink.com 1.10,2013-06-24 10:02:00,
2013-06-24 03:17:00,75.3,46.0,29.30,North,357,0.0,-999.0,35,-99.99,,,0.00,weatherlink.com 1.10,2013-06-24 10:17:00,
2013-06-24 03:47:00,74.9,44.0,29.30,North,359,0.0,-999.0,33,-99.99,,,0.00,weatherlink.com 1.10,2013-06-24 10:47:00,
2013-06-24 04:02:00,75.3,43.0,29.30,North,359,0.0,-999.0,32,-99.99,,,0.00,weatherlink.com 1.10,2013-06-24 11:02:00,
2013-06-24 04:17:00,75.3,46.0,29.30,North,359,0.0,-999.0,35,-99.99,,,0.00,weatherlink.com 1.10,2013-06-24 11:17:00,
2013-06-24 04:47:00,74.9,48.0,29.31,North,359,0.0,-999.0,38,-99.99,,,0.00,weatherlink.com 1.10,2013-06-24 11:47:00,
2013-06-24 05:02:00,73.9,47.0,29.31,North,359,0.0,-999.0,39,-99.99,,,0.00,weatherlink.com 1.10,2013-06-24 12:02:00,
2013-06-24 05:17:00,73.2,48.0,29.32,North,357,0.0,-999.0,41,-99.99,,,0.00,weatherlink.com 1.10,2013-06-24 12:17:00,
2013-06-24 05:32:00,73.0,44.0,29.32,North,357,0.0,-999.0,36,-99.99,,,0.00,weatherlink.com 1.10,2013-06-24 12:32:00,
2013-06-24 05:47:00,73.5,43.0,29.32,North,359,0.0,-999.0,33,-99.99,,,0.00,weatherlink.com 1.10,2013-06-24 12:47:00,
2013-06-24 06:17:00,73.5,49.0,29.33,North,359,0.0,-999.0,42,-99.99,,,0.00,weatherlink.com 1.10,2013-06-24 13:17:00,
2013-06-24 06:47:00,76.0,49.0,29.34,North,359,0.0,-999.0,39,-99.99,,,0.00,weatherlink.com 1.10,2013-06-24 13:47:00,
2013-06-24 07:02:00,77.4,50.0,29.35,North,359,0.0,-999.0,38,-99.99,,,0.00,weatherlink.com 1.10,2013-06-24 14:02:00,
2013-06-24 07:17:00,78.5,49.0,29.36,North,359,0.0,-999.0,35,-99.99,,,0.00,weatherlink.com 1.10,2013-06-24 14:17:00,
2013-06-24 07:48:00,81.8,48.0,29.37,NNW,340,0.0,-999.0,31,-99.99,,,0.00,weatherlink.com 1.10,2013-06-24 14:48:00,
2013-06-24 08:03:00,84.0,48.0,29.37,North,359,0.0,-999.0,29,-99.99,,,0.00,weatherlink.com 1.10,2013-06-24 15:03:00,
2013-06-24 08:18:00,85.9,47.0,29.38,North,356,0.0,-999.0,26,-99.99,,,0.00,weatherlink.com 1.10,2013-06-24 15:18:00,
2013-06-24 08:33:00,87.4,48.0,29.38,North,357,0.0,-999.0,25,-99.99,,,0.00,weatherlink.com 1.10,2013-06-24 15:33:00,
2013-06-24 08:48:00,89.5,46.0,29.38,North,357,1.0,-999.0,22,-99.99,,,0.00,weatherlink.com 1.10,2013-06-24 15:48:00,
2013-06-24 09:03:00,89.5,47.0,29.39,North,357,6.0,-999.0,23,-99.99,,,0.00,weatherlink.com 1.10,2013-06-24 16:03:00,
2013-06-24 09:18:00,90.3,44.0,29.39,North,357,0.0,-999.0,20,-99.99,,,0.00,weatherlink.com 1.10,2013-06-24 16:18:00,
2013-06-24 09:33:00,91.0,43.0,29.39,North,356,0.0,-999.0,19,-99.99,,,0.00,weatherlink.com 1.10,2013-06-24 16:33:00,
2013-06-24 09:48:00,91.4,45.0,29.39,North,356,2.0,-999.0,20,-99.99,,,0.00,weatherlink.com 1.10,2013-06-24 16:48:00,
2013-06-24 10:03:00,92.5,45.0,29.39,North,356,3.0,-999.0,19,-99.99,,,0.00,weatherlink.com 1.10,2013-06-24 17:03:00,
2013-06-24 10:18:00,92.5,46.0,29.39,North,354,0.0,-999.0,20,-99.99,,,0.00,weatherlink.com 1.10,2013-06-24 17:18:00,
2013-06-24 10:33:00,92.7,45.0,29.39,North,357,6.0,-999.0,19,-99.99,,,0.00,weatherlink.com 1.10,2013-06-24 17:33:00,
2013-06-24 10:48:00,93.4,44.0,29.40,North,350,1.0,-999.0,18,-99.99,,,0.00,weatherlink.com 1.10,2013-06-24 17:48:00,
2013-06-24 11:03:00,93.8,47.0,29.39,North,357,0.0,-999.0,20,-99.99,,,0.00,weatherlink.com 1.10,2013-06-24 18:03:00,
2013-06-24 11:18:00,95.6,43.0,29.39,North,356,0.0,-999.0,16,-99.99,,,0.00,weatherlink.com 1.10,2013-06-24 18:18:00,
2013-06-24 11:33:00,96.6,45.0,29.39,North,356,0.0,-999.0,17,-99.99,,,0.00,weatherlink.com 1.10,2013-06-24 18:33:00,
2013-06-24 11:48:00,98.7,42.0,29.39,North,357,1.0,-999.0,14,-99.99,,,0.00,weatherlink.com 1.10,2013-06-24 18:48:00,
2013-06-24 12:03:00,98.2,45.0,29.38,North,357,5.0,-999.0,16,-99.99,,,0.00,weatherlink.com 1.10,2013-06-24 19:03:00,
2013-06-24 12:18:00,99.2,46.0,29.38,North,357,0.0,-999.0,16,-99.99,,,0.00,weatherlink.com 1.10,2013-06-24 19:18:00,
2013-06-24 12:33:00,100.4,43.0,29.37,North,357,0.0,-999.0,14,-99.99,,,0.00,weatherlink.com 1.10,2013-06-24 19:33:00,
2013-06-24 12:48:00,99.9,45.0,29.37,North,357,0.0,-999.0,15,-99.99,,,0.00,weatherlink.com 1.10,2013-06-24 19:48:00,
2013-06-24 13:03:00,99.4,42.0,29.37,North,356,2.0,-999.0,14,-99.99,,,0.00,weatherlink.com 1.10,2013-06-24 20:03:00,
2013-06-24 13:18:00,100.4,43.0,29.36,North,356,0.0,-999.0,14,-99.99,,,0.00,weatherlink.com 1.10,2013-06-24 20:18:00,
2013-06-24 13:33:00,101.2,44.0,29.36,North,356,0.0,-999.0,14,-99.99,,,0.00,weatherlink.com 1.10,2013-06-24 20:33:00,
2013-06-24 13:48:00,101.2,42.0,29.36,North,356,5.0,-999.0,13,-99.99,,,0.00,weatherlink.com 1.10,2013-06-24 20:48:00,
2013-06-24 14:03:00,101.5,42.0,29.36,North,357,0.0,-999.0,13,-99.99,,,0.00,weatherlink.com 1.10,2013-06-24 21:03:00,
2013-06-24 14:33:00,104.1,46.0,29.35,North,354,1.0,-999.0,14,-99.99,,,0.00,weatherlink.com 1.10,2013-06-24 21:33:00,
2013-06-24 14:48:00,103.8,46.0,29.34,North,357,7.0,-999.0,14,-99.99,,,0.00,weatherlink.com 1.10,2013-06-24 21:48:00,
2013-06-24 15:18:00,102.3,47.0,29.34,North,356,4.0,-999.0,15,-99.99,,,0.00,weatherlink.com 1.10,2013-06-24 22:18:00,
2013-06-24 15:33:00,103.1,45.0,29.33,North,354,1.0,-999.0,14,-99.99,,,0.00,weatherlink.com 1.10,2013-06-24 22:33:00,
2013-06-24 15:48:00,103.3,44.0,29.33,North,354,2.0,-999.0,13,-99.99,,,0.00,weatherlink.com 1.10,2013-06-24 22:48:00,
2013-06-24 16:18:00,103.8,42.0,29.32,North,357,1.0,-999.0,12,-99.99,,,0.00,weatherlink.com 1.10,2013-06-24 23:18:00,
2013-06-24 16:33:00,104.6,43.0,29.32,North,357,5.0,-999.0,12,-99.99,,,0.00,weatherlink.com 1.10,2013-06-24 23:33:00,
2013-06-24 16:48:00,104.9,45.0,29.31,North,357,0.0,-999.0,13,-99.99,,,0.00,weatherlink.com 1.10,2013-06-24 23:48:00,
2013-06-24 17:03:00,104.4,46.0,29.31,North,357,0.0,-999.0,14,-99.99,,,0.00,weatherlink.com 1.10,2013-06-25 00:03:00,
2013-06-24 17:18:00,104.1,46.0,29.30,North,357,1.0,-999.0,14,-99.99,,,0.00,weatherlink.com 1.10,2013-06-25 00:18:00,
2013-06-24 17:48:00,102.8,45.0,29.30,North,357,5.0,-999.0,14,-99.99,,,0.00,weatherlink.com 1.10,2013-06-25 00:48:00,
2013-06-24 18:03:00,101.7,44.0,29.30,North,357,2.0,-999.0,14,-99.99,,,0.00,weatherlink.com 1.10,2013-06-25 01:03:00,
2013-06-24 18:18:00,100.4,41.0,29.30,North,357,0.0,-999.0,13,-99.99,,,0.00,weatherlink.com 1.10,2013-06-25 01:18:00,
2013-06-24 18:33:00,99.2,38.0,29.30,North,357,2.0,-999.0,12,-99.99,,,0.00,weatherlink.com 1.10,2013-06-25 01:33:00,
2013-06-24 19:03:00,96.8,36.0,29.31,North,356,4.0,-999.0,12,-99.99,,,0.00,weatherlink.com 1.10,2013-06-25 02:03:00,
2013-06-24 19:18:00,95.9,38.0,29.31,North,356,2.0,-999.0,13,-99.99,,,0.00,weatherlink.com 1.10,2013-06-25 02:18:00,
2013-06-24 19:33:00,93.6,41.0,29.31,North,356,8.0,-999.0,16,-99.99,,,0.00,weatherlink.com 1.10,2013-06-25 02:33:00,
2013-06-24 19:48:00,91.8,41.0,29.32,North,356,7.0,-999.0,17,-99.99,,,0.00,weatherlink.com 1.10,2013-06-25 02:48:00,
2013-06-24 20:33:00,89.5,47.0,29.34,North,357,0.0,-999.0,23,-99.99,,,0.00,weatherlink.com 1.10,2013-06-25 03:33:00,
2013-06-24 20:48:00,88.6,49.0,29.35,North,357,0.0,-999.0,25,-99.99,,,0.00,weatherlink.com 1.10,2013-06-25 03:48:00,
2013-06-24 21:04:00,88.0,49.0,29.35,North,357,1.0,-999.0,26,-99.99,,,0.00,weatherlink.com 1.10,2013-06-25 04:04:00,
2013-06-24 21:19:00,87.6,49.0,29.36,North,357,1.0,-999.0,26,-99.99,,,0.00,weatherlink.com 1.10,2013-06-25 04:19:00,
2013-06-24 21:34:00,87.0,49.0,29.37,North,357,0.0,-999.0,27,-99.99,,,0.00,weatherlink.com 1.10,2013-06-25 04:34:00,
2013-06-24 21:49:00,86.1,48.0,29.37,North,359,0.0,-999.0,27,-99.99,,,0.00,weatherlink.com 1.10,2013-06-25 04:49:00,
2013-06-24 22:04:00,86.5,48.0,29.38,North,359,1.0,-999.0,26,-99.99,,,0.00,weatherlink.com 1.10,2013-06-25 05:04:00,
2013-06-24 22:19:00,86.5,47.0,29.38,North,357,2.0,-999.0,25,-99.99,,,0.00,weatherlink.com 1.10,2013-06-25 05:19:00,
2013-06-24 22:34:00,85.7,46.0,29.39,North,359,2.0,-999.0,25,-99.99,,,0.00,weatherlink.com 1.10,2013-06-25 05:34:00,
2013-06-24 22:49:00,85.1,47.0,29.38,North,359,0.0,-999.0,26,-99.99,,,0.00,weatherlink.com 1.10,2013-06-25 05:49:00,
2013-06-24 23:04:00,84.9,46.0,29.38,North,359,0.0,-999.0,26,-99.99,,,0.00,weatherlink.com 1.10,2013-06-25 06:04:00,
2013-06-24 23:19:00,84.5,47.0,29.38,North,359,0.0,-999.0,27,-99.99,,,0.00,weatherlink.com 1.10,2013-06-25 06:19:00,
2013-06-24 23:34:00,84.0,48.0,29.39,North,359,0.0,-999.0,28,-99.99,,,0.00,weatherlink.com 1.10,2013-06-25 06:34:00,
2013-06-24 23:49:00,83.2,46.0,29.39,NW,313,0.0,-999.0,27,-99.99,,,0.00,weatherlink.com 1.10,2013-06-25 06:49:00,